Time;durP1;ratioP1;P1;durP2;ratioP2;P2;SDS_P1;SDS_P2;PMS_P1;PMS_P2;Temp;Humidity;BMP_temperature;BMP_pressure;BME280_temperature;BME280_humidity;BME280_pressure;Samples;Min_cycle;Max_cycle;Signal;HPM_P1;HPM_P2
2023/02/17 00:00:01;;;;;;;2.55;2.35;;;16.50;60.40;;;;;;4993186;28;20034;-72
2023/02/17 00:02:26;;;;;;;2.50;2.30;;;16.50;60.40;;;;;;4992945;28;20034;-72
2023/02/17 00:04:52;;;;;;;2.85;2.60;;;16.50;60.50;;;;;;4992936;28;20057;-72
2023/02/17 00:07:18;;;;;;;3.70;2.50;;;16.50;60.40;;;;;;4993070;28;20390;-72
2023/02/17 00:09:44;;;;;;;3.10;2.15;;;16.50;60.40;;;;;;4992885;28;20019;-72
2023/02/17 00:12:09;;;;;;;2.58;2.38;;;16.50;60.40;;;;;;4993035;28;20101;-72
2023/02/17 00:14:37;;;;;;;3.60;2.70;;;16.60;60.60;;;;;;4992916;28;20698;-72
2023/02/17 00:17:03;;;;;;;3.50;2.45;;;16.60;60.50;;;;;;4992871;28;20049;-72
2023/02/17 00:19:29;;;;;;;2.20;2.00;;;16.60;60.60;;;;;;4992863;28;20030;-72
2023/02/17 00:21:56;;;;;;;3.20;2.65;;;16.60;60.40;;;;;;4992725;28;20066;-72
2023/02/17 00:24:24;;;;;;;3.13;2.72;;;16.60;60.60;;;;;;4992837;28;20018;-72
2023/02/17 00:26:50;;;;;;;3.78;2.70;;;16.60;60.60;;;;;;4992493;28;20104;-72
2023/02/17 00:29:16;;;;;;;4.22;3.05;;;16.60;60.60;;;;;;4992771;28;20034;-72
2023/02/17 00:31:42;;;;;;;2.42;2.22;;;16.60;60.50;;;;;;4992701;28;20030;-72
2023/02/17 00:34:07;;;;;;;2.50;2.30;;;16.60;60.40;;;;;;4992678;28;20030;-72
2023/02/17 00:36:33;;;;;;;2.88;2.42;;;16.60;60.60;;;;;;4992573;28;20030;-72
2023/02/17 00:38:59;;;;;;;3.72;3.10;;;16.60;60.60;;;;;;4992583;28;20022;-73
2023/02/17 00:41:26;;;;;;;3.83;2.80;;;16.60;60.60;;;;;;4992496;28;20458;-72
2023/02/17 00:43:52;;;;;;;4.85;3.60;;;16.70;60.50;;;;;;4992344;28;20037;-72
2023/02/17 00:46:18;;;;;;;4.35;3.22;;;16.70;60.50;;;;;;4992479;28;20513;-72
2023/02/17 00:48:45;;;;;;;3.72;3.28;;;16.60;60.60;;;;;;4992429;28;20085;-72
2023/02/17 00:51:11;;;;;;;3.40;2.95;;;16.60;60.50;;;;;;4992549;28;20027;-72
2023/02/17 00:53:37;;;;;;;4.60;2.97;;;16.70;60.60;;;;;;4992343;28;20018;-72
2023/02/17 00:56:03;;;;;;;3.75;2.97;;;16.70;60.60;;;;;;4992321;28;20065;-72
2023/02/17 00:58:29;;;;;;;5.53;3.38;;;16.70;60.60;;;;;;4992391;28;20358;-72
2023/02/17 01:00:55;;;;;;;5.20;3.28;;;16.70;60.50;;;;;;4992257;28;20061;-72
2023/02/17 01:03:21;;;;;;;3.28;2.85;;;16.70;60.60;;;;;;4992191;28;20113;-72
2023/02/17 01:05:48;;;;;;;4.72;3.65;;;16.60;60.60;;;;;;4993498;28;20493;-72
2023/02/17 01:08:14;;;;;;;4.85;3.30;;;16.70;60.40;;;;;;4996389;28;20388;-72
2023/02/17 01:10:42;;;;;;;3.80;3.20;;;16.60;60.40;;;;;;4996443;28;20033;-73
2023/02/17 01:13:08;;;;;;;5.72;3.65;;;16.70;60.60;;;;;;4996214;28;20045;-73
2023/02/17 01:16:00;;;;;;;6.70;3.65;;;16.70;60.60;;;;;;4996176;28;20489;-73
2023/02/17 01:18:26;;;;;;;7.55;3.67;;;16.70;60.60;;;;;;4992617;28;20038;-73
2023/02/17 01:20:51;;;;;;;8.70;3.88;;;16.70;60.60;;;;;;4996023;28;20038;-73
2023/02/17 01:23:17;;;;;;;6.05;3.78;;;16.70;60.60;;;;;;4996060;28;20022;-73
2023/02/17 01:25:45;;;;;;;4.85;3.50;;;16.70;60.30;;;;;;4996070;28;20105;-73
2023/02/17 01:28:16;;;;;;;5.30;3.50;;;16.70;60.60;;;;;;4996053;28;20482;-73
2023/02/17 01:30:42;;;;;;;5.88;3.75;;;16.70;60.30;;;;;;4995952;28;20030;-73
2023/02/17 01:33:07;;;;;;;7.53;4.28;;;16.70;60.50;;;;;;4995919;28;20066;-73
2023/02/17 01:35:33;;;;;;;4.43;3.50;;;16.70;60.50;;;;;;4995959;28;20030;-73
2023/02/17 01:37:59;;;;;;;5.88;3.63;;;16.70;60.50;;;;;;4995754;28;20035;-73
2023/02/17 01:40:25;;;;;;;6.32;4.32;;;16.70;60.50;;;;;;4995634;28;20026;-73
2023/02/17 01:42:51;;;;;;;7.47;4.00;;;16.70;60.50;;;;;;4995744;28;20030;-73
2023/02/17 01:45:16;;;;;;;7.88;4.35;;;16.70;60.50;;;;;;4995835;28;20030;-73
2023/02/17 01:47:53;;;;;;;5.85;4.07;;;16.70;60.40;;;;;;4995643;28;20113;-73
2023/02/17 01:50:21;;;;;;;6.13;3.72;;;16.70;60.40;;;;;;4995608;28;20026;-73
2023/02/17 01:52:48;;;;;;;4.72;3.35;;;16.70;60.30;;;;;;4995554;28;20029;-73
2023/02/17 01:55:18;;;;;;;4.90;3.33;;;16.70;60.40;;;;;;4995682;28;20395;-73
2023/02/17 01:57:45;;;;;;;5.47;3.45;;;16.70;60.40;;;;;;4995460;28;20034;-73
2023/02/17 02:00:16;;;;;;;4.90;4.15;;;16.70;60.40;;;;;;4995258;28;20153;-71
2023/02/17 02:02:45;;;;;;;6.57;4.50;;;16.70;60.40;;;;;;4995350;28;20488;-73
2023/02/17 02:05:11;;;;;;;5.25;3.70;;;16.70;60.30;;;;;;4995106;28;20069;-73
2023/02/17 02:07:41;;;;;;;5.78;4.35;;;16.70;60.40;;;;;;4995703;28;20090;-72
2023/02/17 02:10:08;;;;;;;6.00;4.05;;;16.70;60.20;;;;;;4995176;28;20015;-73
2023/02/17 02:12:36;;;;;;;7.20;4.00;;;16.70;60.40;;;;;;4995197;28;20058;-74
2023/02/17 02:15:07;;;;;;;4.65;3.90;;;16.70;60.40;;;;;;4995078;28;20022;-72
2023/02/17 02:17:35;;;;;;;4.50;3.90;;;16.70;60.30;;;;;;4994542;28;20022;-73
2023/02/17 02:20:13;;;;;;;6.95;3.50;;;16.70;60.30;;;;;;4995097;28;20035;-73
2023/02/17 02:22:57;;;;;;;5.55;3.50;;;16.70;60.30;;;;;;4995182;28;20035;-73
2023/02/17 02:25:40;;;;;;;5.93;3.88;;;16.70;60.20;;;;;;4994932;28;20030;-73
2023/02/17 02:28:13;;;;;;;5.25;3.38;;;16.70;60.30;;;;;;4994812;28;20023;-73
2023/02/17 02:31:00;;;;;;;5.57;3.78;;;16.70;60.20;;;;;;4994901;28;20065;-73
2023/02/17 02:33:49;;;;;;;6.78;3.90;;;16.70;60.30;;;;;;4995107;28;20041;-73
2023/02/17 02:36:31;;;;;;;5.10;4.20;;;16.70;60.30;;;;;;4994687;28;20101;-73
2023/02/17 02:39:06;;;;;;;3.65;3.25;;;16.70;61.00;;;;;;4994843;28;20026;-73
2023/02/17 02:41:55;;;;;;;6.32;4.00;;;16.70;60.30;;;;;;4994629;28;20041;-73
2023/02/17 02:44:21;;;;;;;4.75;3.20;;;16.70;60.30;;;;;;4994650;28;20441;-73
2023/02/17 02:47:02;;;;;;;5.78;4.10;;;16.70;60.30;;;;;;4994581;28;20054;-73
2023/02/17 02:49:30;;;;;;;6.07;4.38;;;16.70;60.30;;;;;;4994731;28;20438;-73
2023/02/17 02:52:09;;;;;;;4.60;3.58;;;16.70;60.30;;;;;;4994549;28;20026;-73
2023/02/17 02:54:41;;;;;;;5.82;4.22;;;16.70;60.20;;;;;;4994437;28;20034;-73
2023/02/17 02:57:20;;;;;;;6.05;4.60;;;16.70;60.20;;;;;;4994319;28;20034;-75
2023/02/17 03:00:04;;;;;;;4.88;4.22;;;16.70;60.30;;;;;;4994356;28;20030;-74
2023/02/17 03:02:44;;;;;;;6.10;3.45;;;16.70;60.30;;;;;;4994410;28;20501;-73
2023/02/17 03:05:29;;;;;;;;;;;16.70;60.30;;;;;;4994528;28;20516;-74
2023/02/17 03:08:08;;;;;;;5.00;3.63;;;16.70;60.20;;;;;;4994215;28;19906;-73
2023/02/17 03:10:34;;;;;;;6.82;3.40;;;16.70;60.40;;;;;;4994197;28;20524;-75
2023/02/17 03:13:01;;;;;;;4.32;3.30;;;16.70;61.10;;;;;;4994160;28;20019;-73
2023/02/17 03:15:33;;;;;;;5.63;3.65;;;16.70;60.40;;;;;;4993966;28;20025;-73
2023/02/17 03:18:00;;;;;;;6.15;4.28;;;16.70;60.40;;;;;;4994079;28;20018;-72
2023/02/17 03:20:31;;;;;;;6.82;3.75;;;16.70;60.40;;;;;;4993843;28;20022;-73
2023/02/17 03:22:57;;;;;;;4.93;3.55;;;16.70;60.40;;;;;;4993934;28;20030;-74
2023/02/17 03:25:23;;;;;;;4.07;3.30;;;16.70;60.50;;;;;;4993819;28;20022;-72
2023/02/17 03:27:48;;;;;;;4.40;3.30;;;16.70;60.40;;;;;;4993805;28;20022;-73
2023/02/17 03:30:14;;;;;;;3.92;3.50;;;16.70;60.40;;;;;;4992702;28;20027;-72
2023/02/17 03:32:40;;;;;;;4.60;3.47;;;16.70;60.30;;;;;;4993725;28;20389;-72
2023/02/17 03:35:06;;;;;;;3.22;2.72;;;16.70;60.30;;;;;;4993731;28;20022;-73
2023/02/17 03:37:32;;;;;;;3.95;3.47;;;16.70;60.40;;;;;;4993720;28;20541;-73
2023/02/17 03:39:57;;;;;;;4.38;3.20;;;16.70;60.40;;;;;;4993599;28;20032;-73
2023/02/17 03:42:23;;;;;;;5.75;3.03;;;16.70;60.40;;;;;;4993397;28;20038;-73
2023/02/17 03:44:49;;;;;;;5.15;3.03;;;16.70;60.30;;;;;;4993502;28;20031;-73
2023/02/17 03:47:14;;;;;;;4.20;2.95;;;16.70;60.40;;;;;;4993419;28;20102;-73
2023/02/17 03:49:40;;;;;;;3.15;2.85;;;16.70;60.30;;;;;;4993364;28;20035;-73
2023/02/17 03:52:05;;;;;;;3.65;3.13;;;16.70;60.30;;;;;;4993348;28;20466;-73
2023/02/17 03:54:31;;;;;;;3.20;2.90;;;16.70;60.40;;;;;;4993306;28;20026;-73
2023/02/17 03:56:58;;;;;;;3.92;3.00;;;16.70;60.30;;;;;;4993253;28;20023;-73
2023/02/17 03:59:24;;;;;;;4.22;2.95;;;16.70;60.40;;;;;;4993224;28;20027;-73
2023/02/17 04:01:49;;;;;;;3.88;2.63;;;16.70;61.00;;;;;;4993270;28;20030;-73
2023/02/17 04:04:15;;;;;;;3.80;3.20;;;16.70;60.40;;;;;;4992996;28;20031;-74
2023/02/17 04:06:40;;;;;;;5.72;3.20;;;16.70;60.40;;;;;;4993073;28;20562;-73
2023/02/17 04:09:06;;;;;;;3.03;2.42;;;16.70;60.30;;;;;;4993184;28;20029;-73
2023/02/17 04:11:32;;;;;;;4.50;2.78;;;16.70;60.40;;;;;;4992947;28;20027;-72
2023/02/17 04:13:57;;;;;;;4.45;3.03;;;16.70;60.40;;;;;;4993026;28;20504;-73
2023/02/17 04:16:23;;;;;;;3.50;2.50;;;16.70;60.30;;;;;;4992981;28;20076;-73
2023/02/17 04:18:49;;;;;;;3.28;2.50;;;16.70;60.40;;;;;;4992898;28;20106;-73
2023/02/17 04:21:14;;;;;;;3.45;2.33;;;16.70;61.00;;;;;;4992765;28;20039;-73
2023/02/17 04:23:40;;;;;;;4.18;2.72;;;16.60;60.40;;;;;;4992836;28;20026;-73
2023/02/17 04:26:07;;;;;;;5.15;3.05;;;16.70;60.40;;;;;;4992764;28;20037;-73
2023/02/17 04:28:33;;;;;;;3.30;2.20;;;16.70;60.40;;;;;;4992686;28;20397;-73
2023/02/17 04:30:59;;;;;;;4.35;2.80;;;16.70;60.30;;;;;;4992685;28;20029;-73
2023/02/17 04:33:25;;;;;;;5.38;3.03;;;16.70;60.40;;;;;;4992968;28;20105;-73
2023/02/17 04:35:52;;;;;;;3.60;2.80;;;16.60;60.30;;;;;;4992841;28;20027;-72
2023/02/17 04:38:18;;;;;;;3.15;2.70;;;16.70;60.40;;;;;;4992506;28;20423;-72
2023/02/17 04:40:44;;;;;;;3.08;2.42;;;16.60;60.30;;;;;;4992098;28;20040;-72
2023/02/17 04:43:09;;;;;;;2.92;2.63;;;16.60;60.30;;;;;;4992451;28;20429;-72
2023/02/17 04:45:36;;;;;;;3.63;2.55;;;16.70;60.40;;;;;;4992708;28;20034;-72
2023/02/17 04:48:02;;;;;;;2.70;2.10;;;16.60;60.40;;;;;;4992447;28;20029;-72
2023/02/17 04:50:28;;;;;;;2.40;2.20;;;16.70;60.40;;;;;;4992466;28;20030;-72
2023/02/17 04:52:54;;;;;;;3.88;2.60;;;16.60;60.40;;;;;;4992341;28;20023;-72
2023/02/17 04:55:19;;;;;;;3.00;2.20;;;16.60;60.40;;;;;;4992641;28;20420;-72
2023/02/17 04:57:45;;;;;;;3.55;2.63;;;16.60;61.00;;;;;;4992253;28;20460;-72
2023/02/17 05:00:12;;;;;;;3.30;2.30;;;16.60;60.30;;;;;;4992581;28;20030;-72
2023/02/17 05:02:38;;;;;;;4.35;3.03;;;16.60;60.30;;;;;;4992317;28;20034;-72
2023/02/17 05:05:04;;;;;;;3.50;2.50;;;16.60;60.30;;;;;;4992113;28;20109;-73
2023/02/17 05:07:30;;;;;;;3.38;2.60;;;16.60;60.30;;;;;;4992537;28;20417;-72
2023/02/17 05:09:56;;;;;;;6.65;3.25;;;16.60;60.30;;;;;;4992450;28;20085;-72
2023/02/17 05:12:23;;;;;;;3.85;2.65;;;16.60;60.40;;;;;;4992356;28;20029;-72
2023/02/17 05:14:49;;;;;;;3.75;2.53;;;16.60;60.40;;;;;;4992438;28;20106;-72
2023/02/17 05:17:15;;;;;;;3.95;2.65;;;16.60;61.20;;;;;;4992048;28;20535;-72
2023/02/17 05:19:41;;;;;;;4.30;2.70;;;16.70;60.50;;;;;;4992353;28;20030;-72
2023/02/17 05:22:07;;;;;;;2.85;2.55;;;16.60;60.50;;;;;;4992253;28;20042;-71
2023/02/17 05:24:33;;;;;;;2.92;2.40;;;16.60;60.60;;;;;;4992038;28;20026;-72
2023/02/17 05:26:59;;;;;;;2.58;2.25;;;16.60;60.50;;;;;;4992399;28;20169;-73
2023/02/17 05:29:25;;;;;;;3.30;3.00;;;16.60;60.60;;;;;;4992039;28;20481;-73
2023/02/17 05:31:51;;;;;;;3.45;2.85;;;16.60;60.80;;;;;;4992324;28;20084;-73
2023/02/17 05:34:17;;;;;;;3.95;3.00;;;16.60;60.90;;;;;;4992002;28;20049;-73
2023/02/17 05:36:43;;;;;;;4.72;3.55;;;16.60;60.90;;;;;;4991930;28;20045;-73
2023/02/17 05:39:09;;;;;;;5.80;4.57;;;16.60;61.00;;;;;;4991988;28;20022;-73
2023/02/17 05:41:34;;;;;;;6.45;5.32;;;16.60;61.70;;;;;;4991845;28;20038;-73
2023/02/17 05:44:00;;;;;;;8.25;7.15;;;16.60;61.10;;;;;;4991812;28;20077;-73
2023/02/17 05:46:25;;;;;;;9.73;8.82;;;16.60;61.10;;;;;;4992011;28;20449;-73
2023/02/17 05:48:51;;;;;;;11.18;10.15;;;16.60;61.10;;;;;;4992111;28;20026;-72
2023/02/17 05:51:17;;;;;;;14.70;13.35;;;16.60;61.10;;;;;;4991908;28;20034;-73
2023/02/17 05:53:43;;;;;;;16.58;15.02;;;16.60;61.30;;;;;;4994963;28;20010;-73
2023/02/17 05:56:09;;;;;;;19.85;17.95;;;16.60;61.20;;;;;;4995566;28;20026;-73
2023/02/17 05:58:34;;;;;;;21.70;19.75;;;16.60;61.50;;;;;;4995602;28;20073;-73
2023/02/17 06:01:00;;;;;;;24.63;22.27;;;16.30;61.20;;;;;;4995503;28;20065;-72
2023/02/17 06:03:26;;;;;;;25.90;23.50;;;16.60;61.60;;;;;;4995617;28;20065;-72
2023/02/17 06:05:51;;;;;;;26.15;23.83;;;16.60;61.60;;;;;;4994365;28;20050;-73
2023/02/17 06:08:17;;;;;;;27.35;24.95;;;16.60;61.60;;;;;;4994207;28;20034;-73
2023/02/17 06:10:43;;;;;;;30.63;28.00;;;16.60;61.60;;;;;;4994174;28;20120;-72
2023/02/17 06:13:08;;;;;;;30.77;28.15;;;16.60;61.70;;;;;;4994153;28;20022;-72
2023/02/17 06:15:34;;;;;;;30.25;27.48;;;16.60;61.80;;;;;;4994176;28;20037;-73
2023/02/17 06:17:59;;;;;;;31.25;28.00;;;16.60;61.70;;;;;;4994047;28;20101;-72
2023/02/17 06:20:25;;;;;;;27.20;24.75;;;16.60;61.80;;;;;;4994089;28;20034;-73
2023/02/17 06:22:50;;;;;;;27.13;24.65;;;16.60;61.80;;;;;;4994171;28;20031;-73
2023/02/17 06:25:16;;;;;;;26.83;24.33;;;16.60;61.70;;;;;;4993859;28;20026;-74
2023/02/17 06:27:42;;;;;;;25.17;22.88;;;16.60;61.80;;;;;;4992855;28;20036;-73
2023/02/17 06:30:09;;;;;;;24.38;22.08;;;16.60;61.80;;;;;;4994017;28;20073;-72
2023/02/17 06:32:35;;;;;;;22.58;20.48;;;16.60;61.70;;;;;;4994011;28;20117;-73
2023/02/17 06:35:01;;;;;;;21.35;19.35;;;16.60;61.70;;;;;;4993961;28;20101;-73
2023/02/17 06:37:26;;;;;;;20.92;18.77;;;16.60;61.80;;;;;;4993934;28;20034;-73
2023/02/17 06:39:52;;;;;;;18.67;16.88;;;16.60;61.80;;;;;;4994003;28;20018;-73
2023/02/17 06:42:18;;;;;;;17.08;15.48;;;16.60;61.80;;;;;;4993632;28;20085;-73
2023/02/17 06:44:43;;;;;;;16.20;14.57;;;16.60;61.60;;;;;;4993717;28;20030;-73
2023/02/17 06:47:09;;;;;;;15.55;14.15;;;16.60;61.60;;;;;;4993476;28;20027;-74
2023/02/17 06:49:34;;;;;;;13.73;12.40;;;16.60;61.70;;;;;;4993670;28;20076;-73
2023/02/17 06:52:00;;;;;;;13.20;11.90;;;16.60;61.60;;;;;;4993552;28;20026;-73
2023/02/17 06:54:26;;;;;;;13.55;12.20;;;16.60;61.70;;;;;;4993465;28;20023;-73
2023/02/17 06:56:51;;;;;;;11.30;10.23;;;16.60;61.70;;;;;;4993562;28;20526;-73
2023/02/17 06:59:17;;;;;;;10.75;9.75;;;16.60;61.60;;;;;;4993417;28;20031;-73
2023/02/17 07:01:43;;;;;;;10.18;9.18;;;16.60;61.60;;;;;;4993237;28;20455;-72
2023/02/17 07:04:08;;;;;;;10.23;9.23;;;16.60;61.70;;;;;;4955163;28;1099346;-72
2023/02/17 07:06:34;;;;;;;9.75;8.80;;;16.60;61.60;;;;;;4994434;28;20034;-72
2023/02/17 07:09:00;;;;;;;8.32;7.63;;;16.60;61.60;;;;;;4994360;28;20081;-74
2023/02/17 07:11:30;;;;;;;7.93;7.22;;;16.60;61.70;;;;;;4994244;28;20468;-74
2023/02/17 07:13:56;;;;;;;7.30;6.60;;;16.60;62.30;;;;;;4994238;28;20105;-73
2023/02/17 07:16:23;;;;;;;7.00;6.30;;;16.60;61.70;;;;;;4994371;28;20036;-73
2023/02/17 07:18:49;;;;;;;6.95;6.25;;;16.60;61.90;;;;;;4994726;28;20022;-74
2023/02/17 07:21:15;;;;;;;5.40;4.90;;;16.60;62.00;;;;;;4995284;28;20038;-77
2023/02/17 07:23:41;;;;;;;8.23;5.20;;;16.60;61.90;;;;;;4994096;28;20027;-74
2023/02/17 07:26:10;;;;;;;5.03;4.63;;;16.60;61.90;;;;;;4995214;28;20027;-76
2023/02/17 07:28:37;;;;;;;5.20;4.50;;;16.60;61.80;;;;;;4993995;28;20018;-75
2023/02/17 07:31:15;;;;;;;4.20;3.80;;;16.60;61.90;;;;;;4994049;28;20147;-74
2023/02/17 07:33:42;;;;;;;3.47;3.20;;;16.60;61.80;;;;;;4994048;28;20026;-71
2023/02/17 07:36:09;;;;;;;4.43;3.53;;;16.60;62.00;;;;;;4993988;28;20023;-72
2023/02/17 07:38:36;;;;;;;5.55;3.72;;;16.60;61.80;;;;;;4993610;28;20069;-71
2023/02/17 07:41:07;;;;;;;5.18;2.92;;;16.60;61.90;;;;;;4993755;28;20050;-71
2023/02/17 07:43:32;;;;;;;4.20;2.90;;;16.60;62.00;;;;;;4993734;28;20500;-71
2023/02/17 07:45:59;;;;;;;4.53;2.88;;;16.60;62.00;;;;;;4993700;28;20029;-71
2023/02/17 07:48:25;;;;;;;3.03;2.70;;;16.60;62.10;;;;;;4976458;28;20461;-72
2023/02/17 07:50:51;;;;;;;3.03;2.67;;;16.60;62.80;;;;;;4993673;28;20053;-73
2023/02/17 07:53:17;;;;;;;3.85;2.50;;;16.70;62.20;;;;;;4993801;28;20050;-74
2023/02/17 07:55:42;;;;;;;3.78;2.72;;;16.70;62.10;;;;;;4993846;28;20172;-74
2023/02/17 07:58:08;;;;;;;3.47;2.47;;;16.70;62.30;;;;;;4993651;28;20026;-74
2023/02/17 08:00:34;;;;;;;2.40;2.20;;;16.70;62.30;;;;;;4993572;28;20069;-74
2023/02/17 08:03:00;;;;;;;2.20;2.00;;;16.70;62.20;;;;;;4976108;28;20101;-74
2023/02/17 08:05:27;;;;;;;2.30;2.10;;;16.70;62.20;;;;;;4993206;28;20043;-74
2023/02/17 08:13:18;;;;;;;3.92;2.33;;;16.70;62.10;;;;;;4993527;28;20428;-74
2023/02/17 08:13:25;;;;;;;2.53;1.77;;;16.70;62.30;;;;;;4993621;28;20057;-74
2023/02/17 08:15:51;;;;;;;2.00;1.80;;;16.70;62.10;;;;;;4992900;28;20023;-72
2023/02/17 08:18:17;;;;;;;1.77;1.65;;;16.70;62.00;;;;;;4993350;28;20040;-73
2023/02/17 08:20:43;;;;;;;2.03;1.83;;;16.70;62.10;;;;;;4993179;28;20030;-73
2023/02/17 08:23:09;;;;;;;1.70;1.60;;;16.70;62.00;;;;;;4993027;28;20105;-72
2023/02/17 08:25:36;;;;;;;1.50;1.40;;;16.70;62.00;;;;;;4992871;28;20073;-72
2023/02/17 08:28:04;;;;;;;1.90;1.70;;;16.70;62.80;;;;;;4993150;28;20030;-72
2023/02/17 08:30:30;;;;;;;1.52;1.23;;;16.70;62.00;;;;;;4992896;28;20465;-75
2023/02/17 08:32:56;;;;;;;1.40;1.17;;;16.80;62.10;;;;;;4992882;28;20040;-73
2023/02/17 08:35:22;;;;;;;1.77;1.38;;;16.80;62.10;;;;;;4993045;28;20015;-73
2023/02/17 08:37:49;;;;;;;2.22;1.80;;;16.80;62.10;;;;;;4993101;28;20023;-73
2023/02/17 08:40:16;;;;;;;1.45;1.35;;;16.70;62.00;;;;;;4992961;28;20065;-73
2023/02/17 08:42:42;;;;;;;1.80;1.70;;;16.80;61.90;;;;;;4992839;28;20030;-74
2023/02/17 08:45:07;;;;;;;3.67;1.73;;;16.80;62.00;;;;;;4992592;28;20035;-73
2023/02/17 08:47:35;;;;;;;2.30;1.27;;;16.80;62.00;;;;;;4992947;28;20018;-74
2023/02/17 08:50:03;;;;;;;1.55;1.30;;;16.80;62.10;;;;;;4992936;28;20037;-74
2023/02/17 08:52:29;;;;;;;1.42;1.33;;;16.80;62.00;;;;;;4992475;28;20014;-74
2023/02/17 08:54:55;;;;;;;2.13;1.75;;;16.80;62.00;;;;;;4992555;28;20111;-74
2023/02/17 08:57:21;;;;;;;2.50;1.65;;;16.80;61.90;;;;;;4992765;28;20103;-73
2023/02/17 08:59:48;;;;;;;1.52;1.42;;;16.80;62.00;;;;;;4992777;28;20043;-74
2023/02/17 09:02:15;;;;;;;1.40;1.30;;;16.80;62.10;;;;;;4992507;28;20456;-73
2023/02/17 09:04:42;;;;;;;1.88;1.33;;;16.80;62.00;;;;;;4992626;28;20070;-74
2023/02/17 09:07:10;;;;;;;1.75;1.58;;;16.80;62.00;;;;;;4992539;28;20524;-73
2023/02/17 09:09:36;;;;;;;2.67;1.60;;;16.80;61.90;;;;;;4992738;28;20026;-73
2023/02/17 09:12:02;;;;;;;1.85;1.40;;;16.80;62.00;;;;;;4992623;28;20389;-73
2023/02/17 09:14:28;;;;;;;1.67;1.40;;;16.80;61.90;;;;;;4992604;28;20101;-73
2023/02/17 09:16:55;;;;;;;2.83;1.67;;;16.80;62.00;;;;;;4992502;28;20054;-73
2023/02/17 09:19:21;;;;;;;2.40;1.40;;;16.80;62.00;;;;;;4992456;28;20025;-77
2023/02/17 09:21:48;;;;;;;3.67;1.70;;;16.80;62.10;;;;;;4993768;28;20121;-74
2023/02/17 09:24:15;;;;;;;3.05;1.73;;;16.80;62.10;;;;;;4993438;28;20077;-73
2023/02/17 09:26:42;;;;;;;2.10;1.90;;;16.80;62.00;;;;;;4992618;28;20043;-74
2023/02/17 09:29:08;;;;;;;3.88;2.08;;;16.80;62.00;;;;;;4996100;28;20022;-73
2023/02/17 09:31:35;;;;;;;2.28;1.85;;;16.80;62.00;;;;;;4996151;28;20685;-75
2023/02/17 09:34:02;;;;;;;4.05;1.90;;;16.80;62.00;;;;;;4996228;28;20026;-73
2023/02/17 09:36:32;;;;;;;3.28;2.20;;;16.80;62.00;;;;;;4996309;28;20091;-73
2023/02/17 09:38:58;;;;;;;2.27;2.00;;;16.80;61.80;;;;;;4996159;28;20109;-74
2023/02/17 09:41:36;;;;;;;3.72;1.92;;;16.80;61.90;;;;;;4996204;28;20034;-73
2023/02/17 09:44:06;;;;;;;2.85;1.70;;;16.70;62.00;;;;;;4996228;28;20031;-74
2023/02/17 09:46:40;;;;;;;2.97;1.80;;;16.70;61.90;;;;;;4995922;28;20504;-73
2023/02/17 09:49:23;;;;;;;4.28;2.35;;;16.80;62.10;;;;;;4995765;28;20502;-75
2023/02/17 09:52:12;;;;;;;4.90;1.90;;;16.80;62.00;;;;;;4996076;28;20058;-75
2023/02/17 09:55:17;;;;;;;4.00;1.70;;;16.80;62.10;;;;;;4996069;28;20026;-72
2023/02/17 09:57:50;;;;;;;2.25;1.85;;;16.80;62.00;;;;;;4995992;28;20081;-72
2023/02/17 10:00:25;;;;;;;3.97;2.13;;;16.80;62.10;;;;;;4995890;28;20366;-72
2023/02/17 10:03:05;;;;;;;4.25;2.15;;;16.80;62.10;;;;;;4995798;28;20106;-74
2023/02/17 10:05:59;;;;;;;3.87;2.00;;;16.80;62.10;;;;;;4995334;28;20042;-73
2023/02/17 10:08:30;;;;;;;3.30;1.92;;;16.80;62.10;;;;;;4995715;28;20022;-74
2023/02/17 10:11:07;;;;;;;3.17;2.17;;;16.80;62.20;;;;;;4995448;28;20033;-73
2023/02/17 10:13:34;;;;;;;3.38;2.00;;;16.80;62.00;;;;;;4995475;28;20026;-74
2023/02/17 10:16:04;;;;;;;2.75;1.90;;;16.80;62.10;;;;;;4995194;28;20620;-74
2023/02/17 10:18:46;;;;;;;1.90;1.70;;;16.80;62.10;;;;;;4995428;28;20041;-74
2023/02/17 10:21:22;;;;;;;3.22;1.98;;;16.80;62.00;;;;;;4995220;28;20461;-73
2023/02/17 10:23:50;;;;;;;2.10;1.90;;;16.80;62.10;;;;;;4995371;28;20025;-74
2023/02/17 10:26:19;;;;;;;3.17;2.17;;;16.80;62.10;;;;;;4995105;28;20448;-72
2023/02/17 10:28:50;;;;;;;4.32;2.35;;;16.80;62.10;;;;;;4995495;28;20026;-74
2023/02/17 10:31:39;;;;;;;2.55;2.33;;;16.80;62.10;;;;;;4995360;28;20033;-73
2023/02/17 10:34:35;;;;;;;4.57;2.30;;;16.80;62.00;;;;;;4982666;28;20537;-73
2023/02/17 10:37:17;;;;;;;4.70;2.42;;;16.80;61.90;;;;;;4993372;28;20405;-73
2023/02/17 10:39:49;;;;;;;4.60;2.85;;;16.80;62.10;;;;;;4994509;28;20037;-73
2023/02/17 10:42:25;;;;;;;3.63;2.60;;;16.80;62.00;;;;;;4995106;28;20030;-73
2023/02/17 10:44:55;;;;;;;3.05;2.42;;;16.80;62.00;;;;;;4994862;28;20497;-72
2023/02/17 10:47:21;;;;;;;;;;;16.90;62.10;;;;;;4995352;28;20045;-73
2023/02/17 10:49:51;;;;;;;3.78;2.22;;;16.80;61.80;;;;;;4994827;28;19941;-73
2023/02/17 10:52:20;;;;;;;;;;;16.80;62.00;;;;;;4995369;28;20134;-75
2023/02/17 10:54:58;;;;;;;4.10;3.10;;;16.80;62.00;;;;;;4994681;28;19906;-74
2023/02/17 10:57:31;;;;;;;3.75;2.90;;;16.80;62.30;;;;;;4995219;28;20033;-73
2023/02/17 10:59:57;;;;;;;5.13;3.55;;;16.80;62.00;;;;;;4994906;28;20097;-74
2023/02/17 11:02:44;;;;;;;4.32;2.95;;;16.80;62.10;;;;;;4994363;28;20093;-73
2023/02/17 11:05:23;;;;;;;4.85;2.95;;;16.80;62.00;;;;;;4994186;28;20046;-73
2023/02/17 11:08:06;;;;;;;5.75;3.17;;;16.80;62.00;;;;;;4994671;28;20455;-72
2023/02/17 11:10:35;;;;;;;4.82;2.90;;;16.80;62.00;;;;;;4994684;28;20036;-72
2023/02/17 11:13:02;;;;;;;4.88;3.22;;;16.80;62.00;;;;;;4994539;28;20029;-73
2023/02/17 11:15:42;;;;;;;4.90;3.22;;;16.80;62.10;;;;;;4994540;28;20038;-75
2023/02/17 11:18:16;;;;;;;5.10;3.20;;;16.80;62.10;;;;;;4994298;28;20026;-75
2023/02/17 11:20:43;;;;;;;5.95;3.47;;;16.80;62.00;;;;;;4994069;28;20072;-75
2023/02/17 11:23:14;;;;;;;4.00;3.15;;;16.80;62.10;;;;;;4994121;28;20037;-73
2023/02/17 11:25:42;;;;;;;6.65;2.90;;;16.80;62.00;;;;;;4994340;28;20027;-75
2023/02/17 11:28:22;;;;;;;6.00;2.90;;;16.80;62.00;;;;;;4994174;28;20030;-75
2023/02/17 11:30:52;;;;;;;5.78;3.13;;;16.80;61.90;;;;;;4994195;28;20023;-75
2023/02/17 11:33:33;;;;;;;3.28;2.58;;;16.80;62.00;;;;;;4993783;28;20093;-75
2023/02/17 11:36:00;;;;;;;4.82;3.17;;;16.80;62.00;;;;;;4993973;28;20507;-75
2023/02/17 11:38:46;;;;;;;5.22;2.95;;;16.80;61.90;;;;;;4993725;28;20473;-75
2023/02/17 11:41:12;;;;;;;5.07;2.55;;;16.80;62.60;;;;;;4993666;28;20057;-75
2023/02/17 11:43:38;;;;;;;5.85;3.15;;;16.80;61.90;;;;;;4993654;28;20031;-75
2023/02/17 11:46:22;;;;;;;3.90;2.67;;;16.80;61.90;;;;;;4993602;28;20026;-75
2023/02/17 11:49:11;;;;;;;4.90;2.38;;;16.80;61.80;;;;;;4993876;28;20084;-75
2023/02/17 11:51:46;;;;;;;4.97;2.60;;;16.80;61.90;;;;;;4993240;28;20037;-72
2023/02/17 11:54:48;;;;;;;5.15;2.25;;;16.80;61.80;;;;;;4993506;28;20037;-73
2023/02/17 11:57:35;;;;;;;3.05;1.88;;;16.80;61.80;;;;;;4993377;28;20127;-73
2023/02/17 12:00:13;;;;;;;4.93;1.90;;;16.80;61.90;;;;;;4993607;28;20046;-73
2023/02/17 12:02:57;;;;;;;6.13;2.15;;;16.80;61.80;;;;;;4993393;28;20066;-73
2023/02/17 12:05:35;;;;;;;3.40;2.10;;;16.80;61.70;;;;;;4993016;28;20047;-73
2023/02/17 12:08:04;;;;;;;5.32;2.58;;;16.80;61.80;;;;;;4993202;28;20042;-73
2023/02/17 12:10:38;;;;;;;4.15;2.03;;;16.80;61.80;;;;;;4992974;28;20038;-73
2023/02/17 12:13:32;;;;;;;2.90;1.80;;;16.80;61.80;;;;;;4993158;28;20105;-73
2023/02/17 12:16:05;;;;;;;4.85;2.10;;;16.80;61.80;;;;;;4993334;28;20117;-73
2023/02/17 12:18:30;;;;;;;3.92;1.92;;;16.80;61.70;;;;;;4992974;28;20030;-72
2023/02/17 12:21:02;;;;;;;7.05;1.70;;;16.80;61.70;;;;;;4993097;28;20451;-72
2023/02/17 12:24:05;;;;;;;5.63;1.52;;;16.80;61.70;;;;;;4993011;28;20030;-73
2023/02/17 12:26:46;;;;;;;6.25;2.08;;;16.80;61.70;;;;;;4992831;28;20092;-73
2023/02/17 12:29:41;;;;;;;5.75;1.60;;;16.70;61.60;;;;;;4993029;28;20034;-75
2023/02/17 12:32:13;;;;;;;5.78;1.65;;;16.70;61.70;;;;;;4991186;28;20085;-75
2023/02/17 12:34:41;;;;;;;7.55;1.10;;;16.70;61.60;;;;;;4991361;28;20026;-75
2023/02/17 12:37:19;;;;;;;3.88;1.15;;;16.70;61.70;;;;;;4991618;28;20019;-75
2023/02/17 12:40:10;;;;;;;4.63;1.83;;;16.70;61.60;;;;;;4991601;28;20413;-75
2023/02/17 12:42:42;;;;;;;4.78;1.60;;;16.70;61.60;;;;;;4991127;28;20042;-75
2023/02/17 12:45:20;;;;;;;6.13;1.38;;;16.70;61.60;;;;;;4991449;28;20080;-75
2023/02/17 12:47:55;;;;;;;7.72;1.83;;;16.70;61.60;;;;;;4992921;28;20077;-73
2023/02/17 12:50:37;;;;;;;5.00;1.55;;;16.70;61.60;;;;;;4992948;28;20081;-73
2023/02/17 12:53:11;;;;;;;5.32;1.58;;;16.70;61.60;;;;;;4992917;28;20076;-73
2023/02/17 12:55:49;;;;;;;3.40;1.30;;;16.70;61.60;;;;;;4992841;28;20022;-73
2023/02/17 12:58:18;;;;;;;5.95;1.42;;;16.70;61.70;;;;;;4992509;28;20106;-74
2023/02/17 13:01:06;;;;;;;4.07;1.10;;;16.70;61.70;;;;;;4992363;28;20035;-74